<?xml version="1.0" encoding="UTF-8" standalone="no" ?>
<gpx xmlns="http://www.topografix.com/GPX/1/1" xmlns:xsi="http://www.w3.org/2001/XMLSchema-instance" xsi:schemaLocation="http://www.topografix.com/GPX/1/1 http://www.topografix.com/GPX/1/1/gpx.xsd" version="1.1" creator="VisuGPX - https://www.visugpx.com">
  <metadata>
    <name>Villers Angicourt court</name>
    <desc><![CDATA[3525: départ
3527: Cafosse
3535: vue]]></desc>
  </metadata>
  <wpt lat="49.29313" lon="2.49954">
    <ele>35</ele>
  </wpt>
  <wpt lat="49.29315" lon="2.49954">
    <ele>38</ele>
    <name><![CDATA[WP 02DEPART ESP- P-PERRET]]></name>
  </wpt>
  <wpt lat="49.29805" lon="2.50512">
    <ele>87</ele>
    <name><![CDATA[WP 03LEVEE JOUR RIEUX]]></name>
  </wpt>
  <wpt lat="49.30363" lon="2.50482">
    <ele>96</ele>
    <name><![CDATA[WP 04CAFOSSE]]></name>
  </wpt>
  <wpt lat="49.30391" lon="2.50449">
    <ele>94</ele>
    <name><![CDATA[WP 05VALLEE DU RHONNY]]></name>
  </wpt>
  <wpt lat="49.30902" lon="2.50296">
    <ele>50</ele>
    <name><![CDATA[WP 06EGLISE ANGICOURT 1]]></name>
  </wpt>
  <wpt lat="49.31141" lon="2.50419">
    <ele>43</ele>
    <name><![CDATA[WP 07EGLISE ANG-2]]></name>
  </wpt>
  <wpt lat="49.30947" lon="2.49872">
    <ele>56</ele>
    <name><![CDATA[WP 08VUE PANORA-ANGICFURT]]></name>
  </wpt>
  <wpt lat="49.30105" lon="2.48991">
    <ele>108</ele>
  </wpt>
  <trk>
    <name><![CDATA[Villers Angicourt court_1]]></name>
    <trkseg>
      <trkpt lat="49.29315" lon="2.49954">
        <ele>38</ele>
        <time>2011-11-13T07:05:13Z</time>
      </trkpt>
      <trkpt lat="49.29319" lon="2.49941">
        <ele>35</ele>
        <time>2011-11-13T07:06:18Z</time>
      </trkpt>
      <trkpt lat="49.29331" lon="2.49936">
        <ele>44</ele>
        <time>2011-11-13T07:06:28Z</time>
      </trkpt>
      <trkpt lat="49.2934" lon="2.49932">
        <ele>44</ele>
        <time>2011-11-13T07:06:36Z</time>
      </trkpt>
      <trkpt lat="49.29347" lon="2.49923">
        <ele>44</ele>
        <time>2011-11-13T07:06:49Z</time>
      </trkpt>
      <trkpt lat="49.29354" lon="2.49914">
        <ele>37</ele>
        <time>2011-11-13T07:06:59Z</time>
      </trkpt>
      <trkpt lat="49.29363" lon="2.49913">
        <ele>37</ele>
        <time>2011-11-13T07:07:04Z</time>
      </trkpt>
      <trkpt lat="49.29373" lon="2.49915">
        <ele>44</ele>
        <time>2011-11-13T07:07:11Z</time>
      </trkpt>
      <trkpt lat="49.29382" lon="2.49911">
        <ele>44</ele>
        <time>2011-11-13T07:07:21Z</time>
      </trkpt>
      <trkpt lat="49.29392" lon="2.49909">
        <ele>44</ele>
        <time>2011-11-13T07:07:32Z</time>
      </trkpt>
      <trkpt lat="49.29402" lon="2.49912">
        <ele>44</ele>
        <time>2011-11-13T07:07:41Z</time>
      </trkpt>
      <trkpt lat="49.29412" lon="2.49907">
        <ele>50</ele>
        <time>2011-11-13T07:07:55Z</time>
      </trkpt>
      <trkpt lat="49.29421" lon="2.49907">
        <ele>59</ele>
        <time>2011-11-13T07:08:01Z</time>
      </trkpt>
      <trkpt lat="49.29431" lon="2.49913">
        <ele>64</ele>
        <time>2011-11-13T07:08:07Z</time>
      </trkpt>
      <trkpt lat="49.29438" lon="2.49921">
        <ele>56</ele>
        <time>2011-11-13T07:08:15Z</time>
      </trkpt>
      <trkpt lat="49.29442" lon="2.49936">
        <ele>46</ele>
        <time>2011-11-13T07:08:27Z</time>
      </trkpt>
      <trkpt lat="49.2945" lon="2.49945">
        <ele>46</ele>
        <time>2011-11-13T07:08:33Z</time>
      </trkpt>
      <trkpt lat="49.2945" lon="2.49959">
        <ele>46</ele>
        <time>2011-11-13T07:08:43Z</time>
      </trkpt>
      <trkpt lat="49.29441" lon="2.49969">
        <ele>36</ele>
        <time>2011-11-13T07:08:49Z</time>
      </trkpt>
      <trkpt lat="49.29433" lon="2.49978">
        <ele>36</ele>
        <time>2011-11-13T07:08:54Z</time>
      </trkpt>
      <trkpt lat="49.29426" lon="2.49989">
        <ele>36</ele>
        <time>2011-11-13T07:09:01Z</time>
      </trkpt>
      <trkpt lat="49.29425" lon="2.50003">
        <ele>51</ele>
        <time>2011-11-13T07:09:11Z</time>
      </trkpt>
      <trkpt lat="49.2943" lon="2.5002">
        <ele>63</ele>
        <time>2011-11-13T07:09:21Z</time>
      </trkpt>
      <trkpt lat="49.29422" lon="2.50029">
        <ele>56</ele>
        <time>2011-11-13T07:09:31Z</time>
      </trkpt>
      <trkpt lat="49.29414" lon="2.50034">
        <ele>56</ele>
        <time>2011-11-13T07:09:37Z</time>
      </trkpt>
      <trkpt lat="49.29404" lon="2.50042">
        <ele>50</ele>
        <time>2011-11-13T07:09:43Z</time>
      </trkpt>
      <trkpt lat="49.29397" lon="2.50051">
        <ele>56</ele>
        <time>2011-11-13T07:09:50Z</time>
      </trkpt>
      <trkpt lat="49.29388" lon="2.5006">
        <ele>56</ele>
        <time>2011-11-13T07:09:57Z</time>
      </trkpt>
      <trkpt lat="49.29378" lon="2.50061">
        <ele>50</ele>
        <time>2011-11-13T07:10:05Z</time>
      </trkpt>
      <trkpt lat="49.2937" lon="2.50069">
        <ele>43</ele>
        <time>2011-11-13T07:10:17Z</time>
      </trkpt>
      <trkpt lat="49.29373" lon="2.50083">
        <ele>43</ele>
        <time>2011-11-13T07:10:31Z</time>
      </trkpt>
      <trkpt lat="49.29378" lon="2.50094">
        <ele>50</ele>
        <time>2011-11-13T07:10:43Z</time>
      </trkpt>
      <trkpt lat="49.29386" lon="2.50104">
        <ele>56</ele>
        <time>2011-11-13T07:10:56Z</time>
      </trkpt>
      <trkpt lat="49.29394" lon="2.50116">
        <ele>56</ele>
        <time>2011-11-13T07:11:14Z</time>
      </trkpt>
      <trkpt lat="49.29403" lon="2.5012">
        <ele>63</ele>
        <time>2011-11-13T07:11:20Z</time>
      </trkpt>
      <trkpt lat="49.29413" lon="2.50122">
        <ele>63</ele>
        <time>2011-11-13T07:11:32Z</time>
      </trkpt>
      <trkpt lat="49.29421" lon="2.50131">
        <ele>63</ele>
        <time>2011-11-13T07:11:54Z</time>
      </trkpt>
      <trkpt lat="49.2943" lon="2.50137">
        <ele>63</ele>
        <time>2011-11-13T07:12:07Z</time>
      </trkpt>
      <trkpt lat="49.2944" lon="2.50136">
        <ele>69</ele>
        <time>2011-11-13T07:12:20Z</time>
      </trkpt>
      <trkpt lat="49.2945" lon="2.5014">
        <ele>58</ele>
        <time>2011-11-13T07:12:29Z</time>
      </trkpt>
      <trkpt lat="49.2946" lon="2.50138">
        <ele>70</ele>
        <time>2011-11-13T07:12:49Z</time>
      </trkpt>
      <trkpt lat="49.29471" lon="2.50134">
        <ele>70</ele>
        <time>2011-11-13T07:13:11Z</time>
      </trkpt>
      <trkpt lat="49.29481" lon="2.50132">
        <ele>81</ele>
        <time>2011-11-13T07:13:16Z</time>
      </trkpt>
      <trkpt lat="49.29492" lon="2.50137">
        <ele>81</ele>
        <time>2011-11-13T07:13:24Z</time>
      </trkpt>
      <trkpt lat="49.29502" lon="2.50132">
        <ele>87</ele>
        <time>2011-11-13T07:13:37Z</time>
      </trkpt>
      <trkpt lat="49.29511" lon="2.50126">
        <ele>87</ele>
        <time>2011-11-13T07:13:45Z</time>
      </trkpt>
      <trkpt lat="49.29516" lon="2.50113">
        <ele>94</ele>
        <time>2011-11-13T07:14:01Z</time>
      </trkpt>
      <trkpt lat="49.29524" lon="2.50105">
        <ele>94</ele>
        <time>2011-11-13T07:14:09Z</time>
      </trkpt>
      <trkpt lat="49.29518" lon="2.50096">
        <ele>94</ele>
        <time>2011-11-13T07:14:27Z</time>
      </trkpt>
      <trkpt lat="49.29524" lon="2.50086">
        <ele>94</ele>
        <time>2011-11-13T07:14:38Z</time>
      </trkpt>
      <trkpt lat="49.29534" lon="2.50078">
        <ele>94</ele>
        <time>2011-11-13T07:14:46Z</time>
      </trkpt>
      <trkpt lat="49.29539" lon="2.50067">
        <ele>83</ele>
        <time>2011-11-13T07:15:06Z</time>
      </trkpt>
      <trkpt lat="49.29546" lon="2.50056">
        <ele>90</ele>
        <time>2011-11-13T07:15:18Z</time>
      </trkpt>
      <trkpt lat="49.29557" lon="2.50057">
        <ele>90</ele>
        <time>2011-11-13T07:15:27Z</time>
      </trkpt>
      <trkpt lat="49.29569" lon="2.50057">
        <ele>100</ele>
        <time>2011-11-13T07:15:32Z</time>
      </trkpt>
      <trkpt lat="49.29574" lon="2.50045">
        <ele>100</ele>
        <time>2011-11-13T07:15:45Z</time>
      </trkpt>
      <trkpt lat="49.29571" lon="2.50032">
        <ele>89</ele>
        <time>2011-11-13T07:15:57Z</time>
      </trkpt>
      <trkpt lat="49.29572" lon="2.50017">
        <ele>89</ele>
        <time>2011-11-13T07:16:07Z</time>
      </trkpt>
      <trkpt lat="49.29576" lon="2.50034">
        <ele>89</ele>
        <time>2011-11-13T07:16:20Z</time>
      </trkpt>
      <trkpt lat="49.29583" lon="2.50043">
        <ele>83</ele>
        <time>2011-11-13T07:16:29Z</time>
      </trkpt>
      <trkpt lat="49.29583" lon="2.50057">
        <ele>83</ele>
        <time>2011-11-13T07:16:37Z</time>
      </trkpt>
      <trkpt lat="49.29589" lon="2.5007">
        <ele>83</ele>
        <time>2011-11-13T07:16:45Z</time>
      </trkpt>
      <trkpt lat="49.29582" lon="2.50082">
        <ele>96</ele>
        <time>2011-11-13T07:16:54Z</time>
      </trkpt>
      <trkpt lat="49.29575" lon="2.50094">
        <ele>96</ele>
        <time>2011-11-13T07:17:06Z</time>
      </trkpt>
      <trkpt lat="49.29565" lon="2.50096">
        <ele>96</ele>
        <time>2011-11-13T07:17:11Z</time>
      </trkpt>
      <trkpt lat="49.29556" lon="2.50102">
        <ele>96</ele>
        <time>2011-11-13T07:17:24Z</time>
      </trkpt>
      <trkpt lat="49.29569" lon="2.50103">
        <ele>96</ele>
        <time>2011-11-13T07:17:35Z</time>
      </trkpt>
      <trkpt lat="49.29559" lon="2.50105">
        <ele>85</ele>
        <time>2011-11-13T07:17:45Z</time>
      </trkpt>
      <trkpt lat="49.29566" lon="2.50115">
        <ele>90</ele>
        <time>2011-11-13T07:17:53Z</time>
      </trkpt>
      <trkpt lat="49.29574" lon="2.50124">
        <ele>90</ele>
        <time>2011-11-13T07:18:00Z</time>
      </trkpt>
      <trkpt lat="49.29578" lon="2.50138">
        <ele>90</ele>
        <time>2011-11-13T07:18:08Z</time>
      </trkpt>
      <trkpt lat="49.29581" lon="2.50152">
        <ele>90</ele>
        <time>2011-11-13T07:18:17Z</time>
      </trkpt>
      <trkpt lat="49.29585" lon="2.50167">
        <ele>90</ele>
        <time>2011-11-13T07:18:25Z</time>
      </trkpt>
      <trkpt lat="49.29591" lon="2.50178">
        <ele>90</ele>
        <time>2011-11-13T07:18:33Z</time>
      </trkpt>
      <trkpt lat="49.29598" lon="2.50188">
        <ele>90</ele>
        <time>2011-11-13T07:18:40Z</time>
      </trkpt>
      <trkpt lat="49.29606" lon="2.50196">
        <ele>90</ele>
        <time>2011-11-13T07:18:46Z</time>
      </trkpt>
      <trkpt lat="49.2961" lon="2.5021">
        <ele>90</ele>
        <time>2011-11-13T07:18:53Z</time>
      </trkpt>
      <trkpt lat="49.29618" lon="2.50216">
        <ele>90</ele>
        <time>2011-11-13T07:18:58Z</time>
      </trkpt>
      <trkpt lat="49.29624" lon="2.50227">
        <ele>100</ele>
        <time>2011-11-13T07:19:03Z</time>
      </trkpt>
      <trkpt lat="49.29632" lon="2.50235">
        <ele>100</ele>
        <time>2011-11-13T07:19:10Z</time>
      </trkpt>
      <trkpt lat="49.29636" lon="2.50248">
        <ele>94</ele>
        <time>2011-11-13T07:19:20Z</time>
      </trkpt>
      <trkpt lat="49.29638" lon="2.50263">
        <ele>94</ele>
        <time>2011-11-13T07:19:31Z</time>
      </trkpt>
      <trkpt lat="49.29648" lon="2.50269">
        <ele>94</ele>
        <time>2011-11-13T07:19:36Z</time>
      </trkpt>
      <trkpt lat="49.29652" lon="2.50284">
        <ele>94</ele>
        <time>2011-11-13T07:19:42Z</time>
      </trkpt>
      <trkpt lat="49.29657" lon="2.50298">
        <ele>94</ele>
        <time>2011-11-13T07:19:50Z</time>
      </trkpt>
      <trkpt lat="49.29666" lon="2.50305">
        <ele>94</ele>
        <time>2011-11-13T07:20:00Z</time>
      </trkpt>
      <trkpt lat="49.29672" lon="2.50317">
        <ele>94</ele>
        <time>2011-11-13T07:20:07Z</time>
      </trkpt>
      <trkpt lat="49.2968" lon="2.50326">
        <ele>94</ele>
        <time>2011-11-13T07:20:12Z</time>
      </trkpt>
      <trkpt lat="49.29685" lon="2.50339">
        <ele>94</ele>
        <time>2011-11-13T07:20:20Z</time>
      </trkpt>
      <trkpt lat="49.2969" lon="2.50352">
        <ele>94</ele>
        <time>2011-11-13T07:20:29Z</time>
      </trkpt>
      <trkpt lat="49.29699" lon="2.50355">
        <ele>94</ele>
        <time>2011-11-13T07:20:38Z</time>
      </trkpt>
      <trkpt lat="49.29699" lon="2.5037">
        <ele>94</ele>
        <time>2011-11-13T07:20:49Z</time>
      </trkpt>
      <trkpt lat="49.29704" lon="2.50382">
        <ele>94</ele>
        <time>2011-11-13T07:20:56Z</time>
      </trkpt>
      <trkpt lat="49.29712" lon="2.50392">
        <ele>94</ele>
        <time>2011-11-13T07:21:04Z</time>
      </trkpt>
      <trkpt lat="49.2972" lon="2.504">
        <ele>94</ele>
        <time>2011-11-13T07:21:12Z</time>
      </trkpt>
      <trkpt lat="49.2973" lon="2.50401">
        <ele>94</ele>
        <time>2011-11-13T07:21:20Z</time>
      </trkpt>
      <trkpt lat="49.2974" lon="2.50405">
        <ele>94</ele>
        <time>2011-11-13T07:21:32Z</time>
      </trkpt>
      <trkpt lat="49.29746" lon="2.50416">
        <ele>94</ele>
        <time>2011-11-13T07:21:40Z</time>
      </trkpt>
      <trkpt lat="49.29752" lon="2.50427">
        <ele>94</ele>
        <time>2011-11-13T07:21:52Z</time>
      </trkpt>
      <trkpt lat="49.29758" lon="2.50438">
        <ele>89</ele>
        <time>2011-11-13T07:22:01Z</time>
      </trkpt>
      <trkpt lat="49.29764" lon="2.50448">
        <ele>89</ele>
        <time>2011-11-13T07:22:09Z</time>
      </trkpt>
      <trkpt lat="49.29771" lon="2.50458">
        <ele>89</ele>
        <time>2011-11-13T07:22:17Z</time>
      </trkpt>
      <trkpt lat="49.29779" lon="2.50468">
        <ele>89</ele>
        <time>2011-11-13T07:22:25Z</time>
      </trkpt>
      <trkpt lat="49.29785" lon="2.50479">
        <ele>89</ele>
        <time>2011-11-13T07:22:33Z</time>
      </trkpt>
      <trkpt lat="49.29791" lon="2.5049">
        <ele>89</ele>
        <time>2011-11-13T07:22:41Z</time>
      </trkpt>
      <trkpt lat="49.29798" lon="2.50501">
        <ele>89</ele>
        <time>2011-11-13T07:22:49Z</time>
      </trkpt>
      <trkpt lat="49.29803" lon="2.50512">
        <ele>89</ele>
        <time>2011-11-13T07:23:00Z</time>
      </trkpt>
      <trkpt lat="49.29811" lon="2.50519">
        <ele>89</ele>
        <time>2011-11-13T07:23:19Z</time>
      </trkpt>
      <trkpt lat="49.29803" lon="2.50525">
        <ele>95</ele>
        <time>2011-11-13T07:23:54Z</time>
      </trkpt>
      <trkpt lat="49.29795" lon="2.50533">
        <ele>95</ele>
        <time>2011-11-13T07:24:05Z</time>
      </trkpt>
      <trkpt lat="49.29787" lon="2.50539">
        <ele>88</ele>
        <time>2011-11-13T07:24:16Z</time>
      </trkpt>
      <trkpt lat="49.29797" lon="2.50542">
        <ele>88</ele>
        <time>2011-11-13T07:26:41Z</time>
      </trkpt>
      <trkpt lat="49.29791" lon="2.50531">
        <ele>81</ele>
        <time>2011-11-13T07:27:04Z</time>
      </trkpt>
      <trkpt lat="49.29798" lon="2.50523">
        <ele>87</ele>
        <time>2011-11-13T07:27:18Z</time>
      </trkpt>
      <trkpt lat="49.29805" lon="2.50512">
        <ele>87</ele>
        <time>2011-11-13T07:27:40Z</time>
      </trkpt>
      <trkpt lat="49.29814" lon="2.50506">
        <ele>87</ele>
        <time>2011-11-13T07:28:42Z</time>
      </trkpt>
      <trkpt lat="49.29821" lon="2.50495">
        <ele>87</ele>
        <time>2011-11-13T07:28:52Z</time>
      </trkpt>
      <trkpt lat="49.29826" lon="2.50482">
        <ele>87</ele>
        <time>2011-11-13T07:29:04Z</time>
      </trkpt>
      <trkpt lat="49.29833" lon="2.50471">
        <ele>87</ele>
        <time>2011-11-13T07:29:13Z</time>
      </trkpt>
      <trkpt lat="49.29841" lon="2.50462">
        <ele>93</ele>
        <time>2011-11-13T07:29:23Z</time>
      </trkpt>
      <trkpt lat="49.29848" lon="2.50452">
        <ele>93</ele>
        <time>2011-11-13T07:29:33Z</time>
      </trkpt>
      <trkpt lat="49.29855" lon="2.50441">
        <ele>93</ele>
        <time>2011-11-13T07:29:40Z</time>
      </trkpt>
      <trkpt lat="49.29862" lon="2.50431">
        <ele>93</ele>
        <time>2011-11-13T07:29:47Z</time>
      </trkpt>
      <trkpt lat="49.29869" lon="2.50423">
        <ele>93</ele>
        <time>2011-11-13T07:29:54Z</time>
      </trkpt>
      <trkpt lat="49.29878" lon="2.50417">
        <ele>93</ele>
        <time>2011-11-13T07:30:00Z</time>
      </trkpt>
      <trkpt lat="49.29885" lon="2.50409">
        <ele>93</ele>
        <time>2011-11-13T07:30:07Z</time>
      </trkpt>
      <trkpt lat="49.29894" lon="2.50399">
        <ele>93</ele>
        <time>2011-11-13T07:30:14Z</time>
      </trkpt>
      <trkpt lat="49.29901" lon="2.5039">
        <ele>93</ele>
        <time>2011-11-13T07:30:21Z</time>
      </trkpt>
      <trkpt lat="49.29905" lon="2.50378">
        <ele>93</ele>
        <time>2011-11-13T07:30:28Z</time>
      </trkpt>
      <trkpt lat="49.29911" lon="2.50367">
        <ele>93</ele>
        <time>2011-11-13T07:30:35Z</time>
      </trkpt>
      <trkpt lat="49.29918" lon="2.50357">
        <ele>99</ele>
        <time>2011-11-13T07:30:42Z</time>
      </trkpt>
      <trkpt lat="49.29923" lon="2.50345">
        <ele>99</ele>
        <time>2011-11-13T07:30:49Z</time>
      </trkpt>
      <trkpt lat="49.2993" lon="2.50335">
        <ele>99</ele>
        <time>2011-11-13T07:30:55Z</time>
      </trkpt>
      <trkpt lat="49.29937" lon="2.50325">
        <ele>99</ele>
        <time>2011-11-13T07:31:03Z</time>
      </trkpt>
      <trkpt lat="49.29945" lon="2.50314">
        <ele>99</ele>
        <time>2011-11-13T07:31:10Z</time>
      </trkpt>
      <trkpt lat="49.29951" lon="2.50303">
        <ele>99</ele>
        <time>2011-11-13T07:31:17Z</time>
      </trkpt>
      <trkpt lat="49.29957" lon="2.50292">
        <ele>99</ele>
        <time>2011-11-13T07:31:24Z</time>
      </trkpt>
      <trkpt lat="49.29964" lon="2.50281">
        <ele>99</ele>
        <time>2011-11-13T07:31:32Z</time>
      </trkpt>
      <trkpt lat="49.2997" lon="2.50271">
        <ele>99</ele>
        <time>2011-11-13T07:31:39Z</time>
      </trkpt>
      <trkpt lat="49.29977" lon="2.5026">
        <ele>99</ele>
        <time>2011-11-13T07:31:46Z</time>
      </trkpt>
      <trkpt lat="49.29984" lon="2.50251">
        <ele>99</ele>
        <time>2011-11-13T07:31:53Z</time>
      </trkpt>
      <trkpt lat="49.29994" lon="2.50251">
        <ele>99</ele>
        <time>2011-11-13T07:32:01Z</time>
      </trkpt>
      <trkpt lat="49.30004" lon="2.50256">
        <ele>99</ele>
        <time>2011-11-13T07:32:08Z</time>
      </trkpt>
      <trkpt lat="49.30013" lon="2.50263">
        <ele>99</ele>
        <time>2011-11-13T07:32:15Z</time>
      </trkpt>
      <trkpt lat="49.30022" lon="2.5027">
        <ele>99</ele>
        <time>2011-11-13T07:32:22Z</time>
      </trkpt>
      <trkpt lat="49.30031" lon="2.50276">
        <ele>99</ele>
        <time>2011-11-13T07:32:29Z</time>
      </trkpt>
      <trkpt lat="49.30039" lon="2.50282">
        <ele>99</ele>
        <time>2011-11-13T07:32:36Z</time>
      </trkpt>
      <trkpt lat="49.30048" lon="2.50289">
        <ele>99</ele>
        <time>2011-11-13T07:32:43Z</time>
      </trkpt>
      <trkpt lat="49.30056" lon="2.50296">
        <ele>99</ele>
        <time>2011-11-13T07:32:50Z</time>
      </trkpt>
      <trkpt lat="49.30064" lon="2.50302">
        <ele>99</ele>
        <time>2011-11-13T07:32:57Z</time>
      </trkpt>
      <trkpt lat="49.30072" lon="2.50308">
        <ele>99</ele>
        <time>2011-11-13T07:33:04Z</time>
      </trkpt>
      <trkpt lat="49.30081" lon="2.50316">
        <ele>99</ele>
        <time>2011-11-13T07:33:12Z</time>
      </trkpt>
      <trkpt lat="49.3009" lon="2.50321">
        <ele>99</ele>
        <time>2011-11-13T07:33:19Z</time>
      </trkpt>
      <trkpt lat="49.30099" lon="2.50328">
        <ele>99</ele>
        <time>2011-11-13T07:33:26Z</time>
      </trkpt>
      <trkpt lat="49.30107" lon="2.50337">
        <ele>99</ele>
        <time>2011-11-13T07:33:33Z</time>
      </trkpt>
      <trkpt lat="49.30116" lon="2.50344">
        <ele>99</ele>
        <time>2011-11-13T07:33:40Z</time>
      </trkpt>
      <trkpt lat="49.30124" lon="2.50352">
        <ele>99</ele>
        <time>2011-11-13T07:33:47Z</time>
      </trkpt>
      <trkpt lat="49.30133" lon="2.50359">
        <ele>99</ele>
        <time>2011-11-13T07:33:54Z</time>
      </trkpt>
      <trkpt lat="49.30141" lon="2.50365">
        <ele>99</ele>
        <time>2011-11-13T07:34:01Z</time>
      </trkpt>
      <trkpt lat="49.30151" lon="2.5037">
        <ele>99</ele>
        <time>2011-11-13T07:34:09Z</time>
      </trkpt>
      <trkpt lat="49.3016" lon="2.50377">
        <ele>99</ele>
        <time>2011-11-13T07:34:16Z</time>
      </trkpt>
      <trkpt lat="49.30169" lon="2.50381">
        <ele>99</ele>
        <time>2011-11-13T07:34:23Z</time>
      </trkpt>
      <trkpt lat="49.30179" lon="2.50385">
        <ele>99</ele>
        <time>2011-11-13T07:34:31Z</time>
      </trkpt>
      <trkpt lat="49.30189" lon="2.50387">
        <ele>99</ele>
        <time>2011-11-13T07:34:39Z</time>
      </trkpt>
      <trkpt lat="49.30199" lon="2.50389">
        <ele>99</ele>
        <time>2011-11-13T07:34:47Z</time>
      </trkpt>
      <trkpt lat="49.30209" lon="2.50391">
        <ele>99</ele>
        <time>2011-11-13T07:34:55Z</time>
      </trkpt>
      <trkpt lat="49.30218" lon="2.50393">
        <ele>99</ele>
        <time>2011-11-13T07:35:01Z</time>
      </trkpt>
      <trkpt lat="49.30228" lon="2.50396">
        <ele>99</ele>
        <time>2011-11-13T07:35:07Z</time>
      </trkpt>
      <trkpt lat="49.30239" lon="2.50396">
        <ele>93</ele>
        <time>2011-11-13T07:35:14Z</time>
      </trkpt>
      <trkpt lat="49.30248" lon="2.50397">
        <ele>93</ele>
        <time>2011-11-13T07:35:23Z</time>
      </trkpt>
      <trkpt lat="49.30258" lon="2.50397">
        <ele>100</ele>
        <time>2011-11-13T07:35:33Z</time>
      </trkpt>
      <trkpt lat="49.30269" lon="2.50399">
        <ele>100</ele>
        <time>2011-11-13T07:35:40Z</time>
      </trkpt>
      <trkpt lat="49.30278" lon="2.50401">
        <ele>100</ele>
        <time>2011-11-13T07:35:45Z</time>
      </trkpt>
      <trkpt lat="49.30288" lon="2.50402">
        <ele>100</ele>
        <time>2011-11-13T07:35:53Z</time>
      </trkpt>
      <trkpt lat="49.30296" lon="2.5041">
        <ele>100</ele>
        <time>2011-11-13T07:36:01Z</time>
      </trkpt>
      <trkpt lat="49.30302" lon="2.50423">
        <ele>93</ele>
        <time>2011-11-13T07:36:09Z</time>
      </trkpt>
      <trkpt lat="49.30307" lon="2.50437">
        <ele>93</ele>
        <time>2011-11-13T07:36:18Z</time>
      </trkpt>
      <trkpt lat="49.30316" lon="2.50442">
        <ele>88</ele>
        <time>2011-11-13T07:36:27Z</time>
      </trkpt>
      <trkpt lat="49.30324" lon="2.50435">
        <ele>88</ele>
        <time>2011-11-13T07:36:33Z</time>
      </trkpt>
      <trkpt lat="49.30332" lon="2.50426">
        <ele>88</ele>
        <time>2011-11-13T07:36:40Z</time>
      </trkpt>
      <trkpt lat="49.30326" lon="2.50438">
        <ele>88</ele>
        <time>2011-11-13T07:36:51Z</time>
      </trkpt>
      <trkpt lat="49.30321" lon="2.5045">
        <ele>95</ele>
        <time>2011-11-13T07:37:02Z</time>
      </trkpt>
      <trkpt lat="49.30313" lon="2.50458">
        <ele>95</ele>
        <time>2011-11-13T07:37:10Z</time>
      </trkpt>
      <trkpt lat="49.30308" lon="2.50471">
        <ele>95</ele>
        <time>2011-11-13T07:37:18Z</time>
      </trkpt>
      <trkpt lat="49.30307" lon="2.50486">
        <ele>95</ele>
        <time>2011-11-13T07:37:25Z</time>
      </trkpt>
      <trkpt lat="49.30305" lon="2.50502">
        <ele>95</ele>
        <time>2011-11-13T07:37:31Z</time>
      </trkpt>
      <trkpt lat="49.30303" lon="2.50516">
        <ele>95</ele>
        <time>2011-11-13T07:37:38Z</time>
      </trkpt>
      <trkpt lat="49.303" lon="2.5053">
        <ele>95</ele>
        <time>2011-11-13T07:37:45Z</time>
      </trkpt>
      <trkpt lat="49.30301" lon="2.50546">
        <ele>95</ele>
        <time>2011-11-13T07:37:53Z</time>
      </trkpt>
      <trkpt lat="49.30303" lon="2.50562">
        <ele>95</ele>
        <time>2011-11-13T07:38:00Z</time>
      </trkpt>
      <trkpt lat="49.30313" lon="2.50557">
        <ele>95</ele>
        <time>2011-11-13T07:38:08Z</time>
      </trkpt>
      <trkpt lat="49.30321" lon="2.5055">
        <ele>95</ele>
        <time>2011-11-13T07:38:13Z</time>
      </trkpt>
      <trkpt lat="49.30323" lon="2.50536">
        <ele>95</ele>
        <time>2011-11-13T07:38:26Z</time>
      </trkpt>
      <trkpt lat="49.3033" lon="2.50526">
        <ele>95</ele>
        <time>2011-11-13T07:38:45Z</time>
      </trkpt>
      <trkpt lat="49.30339" lon="2.5052">
        <ele>95</ele>
        <time>2011-11-13T07:38:55Z</time>
      </trkpt>
      <trkpt lat="49.30338" lon="2.50504">
        <ele>89</ele>
        <time>2011-11-13T07:39:06Z</time>
      </trkpt>
      <trkpt lat="49.30346" lon="2.50495">
        <ele>89</ele>
        <time>2011-11-13T07:39:12Z</time>
      </trkpt>
      <trkpt lat="49.30354" lon="2.50487">
        <ele>89</ele>
        <time>2011-11-13T07:39:19Z</time>
      </trkpt>
      <trkpt lat="49.3036" lon="2.50476">
        <ele>89</ele>
        <time>2011-11-13T07:39:26Z</time>
      </trkpt>
      <trkpt lat="49.30363" lon="2.50482">
        <ele>96</ele>
        <time>2011-11-13T07:40:23Z</time>
      </trkpt>
      <trkpt lat="49.30368" lon="2.50469">
        <ele>89</ele>
        <time>2011-11-13T07:40:47Z</time>
      </trkpt>
      <trkpt lat="49.30374" lon="2.50457">
        <ele>89</ele>
        <time>2011-11-13T07:40:53Z</time>
      </trkpt>
      <trkpt lat="49.3038" lon="2.50447">
        <ele>89</ele>
        <time>2011-11-13T07:41:00Z</time>
      </trkpt>
      <trkpt lat="49.30389" lon="2.50451">
        <ele>101</ele>
        <time>2011-11-13T07:41:19Z</time>
      </trkpt>
      <trkpt lat="49.30391" lon="2.50449">
        <ele>94</ele>
        <time>2011-11-13T07:41:50Z</time>
      </trkpt>
      <trkpt lat="49.30397" lon="2.50439">
        <ele>86</ele>
        <time>2011-11-13T07:42:50Z</time>
      </trkpt>
      <trkpt lat="49.30399" lon="2.50423">
        <ele>94</ele>
        <time>2011-11-13T07:43:18Z</time>
      </trkpt>
      <trkpt lat="49.30407" lon="2.50414">
        <ele>94</ele>
        <time>2011-11-13T07:43:28Z</time>
      </trkpt>
      <trkpt lat="49.30411" lon="2.50401">
        <ele>94</ele>
        <time>2011-11-13T07:43:34Z</time>
      </trkpt>
      <trkpt lat="49.30422" lon="2.50387">
        <ele>94</ele>
        <time>2011-11-13T07:43:46Z</time>
      </trkpt>
      <trkpt lat="49.30425" lon="2.50371">
        <ele>94</ele>
        <time>2011-11-13T07:43:50Z</time>
      </trkpt>
      <trkpt lat="49.30432" lon="2.50361">
        <ele>94</ele>
        <time>2011-11-13T07:43:56Z</time>
      </trkpt>
      <trkpt lat="49.3044" lon="2.50353">
        <ele>94</ele>
        <time>2011-11-13T07:44:04Z</time>
      </trkpt>
      <trkpt lat="49.30447" lon="2.50343">
        <ele>94</ele>
        <time>2011-11-13T07:44:11Z</time>
      </trkpt>
      <trkpt lat="49.30454" lon="2.50333">
        <ele>89</ele>
        <time>2011-11-13T07:44:18Z</time>
      </trkpt>
      <trkpt lat="49.30461" lon="2.50323">
        <ele>83</ele>
        <time>2011-11-13T07:44:25Z</time>
      </trkpt>
      <trkpt lat="49.30469" lon="2.50313">
        <ele>83</ele>
        <time>2011-11-13T07:44:33Z</time>
      </trkpt>
      <trkpt lat="49.30475" lon="2.50299">
        <ele>92</ele>
        <time>2011-11-13T07:44:39Z</time>
      </trkpt>
      <trkpt lat="49.30482" lon="2.50288">
        <ele>92</ele>
        <time>2011-11-13T07:44:46Z</time>
      </trkpt>
      <trkpt lat="49.30489" lon="2.50277">
        <ele>92</ele>
        <time>2011-11-13T07:44:53Z</time>
      </trkpt>
      <trkpt lat="49.30496" lon="2.50264">
        <ele>92</ele>
        <time>2011-11-13T07:45:02Z</time>
      </trkpt>
      <trkpt lat="49.30502" lon="2.50253">
        <ele>92</ele>
        <time>2011-11-13T07:45:07Z</time>
      </trkpt>
      <trkpt lat="49.30509" lon="2.50244">
        <ele>99</ele>
        <time>2011-11-13T07:45:15Z</time>
      </trkpt>
      <trkpt lat="49.30514" lon="2.50231">
        <ele>99</ele>
        <time>2011-11-13T07:45:22Z</time>
      </trkpt>
      <trkpt lat="49.30522" lon="2.50221">
        <ele>99</ele>
        <time>2011-11-13T07:45:29Z</time>
      </trkpt>
      <trkpt lat="49.30528" lon="2.50211">
        <ele>94</ele>
        <time>2011-11-13T07:45:35Z</time>
      </trkpt>
      <trkpt lat="49.30533" lon="2.50197">
        <ele>94</ele>
        <time>2011-11-13T07:45:42Z</time>
      </trkpt>
      <trkpt lat="49.30539" lon="2.50186">
        <ele>94</ele>
        <time>2011-11-13T07:45:50Z</time>
      </trkpt>
      <trkpt lat="49.30544" lon="2.50173">
        <ele>94</ele>
        <time>2011-11-13T07:45:58Z</time>
      </trkpt>
      <trkpt lat="49.30551" lon="2.50161">
        <ele>94</ele>
        <time>2011-11-13T07:46:05Z</time>
      </trkpt>
      <trkpt lat="49.30555" lon="2.50148">
        <ele>94</ele>
        <time>2011-11-13T07:46:11Z</time>
      </trkpt>
      <trkpt lat="49.30563" lon="2.5014">
        <ele>87</ele>
        <time>2011-11-13T07:46:18Z</time>
      </trkpt>
      <trkpt lat="49.30572" lon="2.5013">
        <ele>87</ele>
        <time>2011-11-13T07:46:24Z</time>
      </trkpt>
      <trkpt lat="49.30579" lon="2.50118">
        <ele>87</ele>
        <time>2011-11-13T07:46:28Z</time>
      </trkpt>
      <trkpt lat="49.30586" lon="2.50107">
        <ele>87</ele>
        <time>2011-11-13T07:46:35Z</time>
      </trkpt>
      <trkpt lat="49.30594" lon="2.50098">
        <ele>87</ele>
        <time>2011-11-13T07:46:41Z</time>
      </trkpt>
      <trkpt lat="49.30601" lon="2.50087">
        <ele>96</ele>
        <time>2011-11-13T07:46:50Z</time>
      </trkpt>
      <trkpt lat="49.30607" lon="2.50076">
        <ele>96</ele>
        <time>2011-11-13T07:46:58Z</time>
      </trkpt>
      <trkpt lat="49.30614" lon="2.50064">
        <ele>101</ele>
        <time>2011-11-13T07:47:05Z</time>
      </trkpt>
      <trkpt lat="49.30622" lon="2.50056">
        <ele>101</ele>
        <time>2011-11-13T07:47:12Z</time>
      </trkpt>
      <trkpt lat="49.30627" lon="2.50044">
        <ele>101</ele>
        <time>2011-11-13T07:47:19Z</time>
      </trkpt>
      <trkpt lat="49.30633" lon="2.50034">
        <ele>101</ele>
        <time>2011-11-13T07:47:25Z</time>
      </trkpt>
      <trkpt lat="49.30642" lon="2.50026">
        <ele>95</ele>
        <time>2011-11-13T07:47:31Z</time>
      </trkpt>
      <trkpt lat="49.30651" lon="2.50017">
        <ele>95</ele>
        <time>2011-11-13T07:47:39Z</time>
      </trkpt>
      <trkpt lat="49.3066" lon="2.50007">
        <ele>90</ele>
        <time>2011-11-13T07:47:46Z</time>
      </trkpt>
      <trkpt lat="49.30667" lon="2.49997">
        <ele>90</ele>
        <time>2011-11-13T07:47:52Z</time>
      </trkpt>
      <trkpt lat="49.30674" lon="2.49986">
        <ele>90</ele>
        <time>2011-11-13T07:47:58Z</time>
      </trkpt>
      <trkpt lat="49.30682" lon="2.4998">
        <ele>90</ele>
        <time>2011-11-13T07:48:11Z</time>
      </trkpt>
      <trkpt lat="49.30685" lon="2.49993">
        <ele>90</ele>
        <time>2011-11-13T07:48:18Z</time>
      </trkpt>
      <trkpt lat="49.30686" lon="2.50007">
        <ele>90</ele>
        <time>2011-11-13T07:48:27Z</time>
      </trkpt>
      <trkpt lat="49.30691" lon="2.5002">
        <ele>90</ele>
        <time>2011-11-13T07:48:35Z</time>
      </trkpt>
      <trkpt lat="49.30698" lon="2.50032">
        <ele>90</ele>
        <time>2011-11-13T07:48:41Z</time>
      </trkpt>
      <trkpt lat="49.30705" lon="2.50042">
        <ele>90</ele>
        <time>2011-11-13T07:48:47Z</time>
      </trkpt>
      <trkpt lat="49.30712" lon="2.50051">
        <ele>90</ele>
        <time>2011-11-13T07:48:57Z</time>
      </trkpt>
      <trkpt lat="49.30719" lon="2.50062">
        <ele>90</ele>
        <time>2011-11-13T07:49:05Z</time>
      </trkpt>
      <trkpt lat="49.30726" lon="2.50073">
        <ele>90</ele>
        <time>2011-11-13T07:49:13Z</time>
      </trkpt>
      <trkpt lat="49.30733" lon="2.50083">
        <ele>90</ele>
        <time>2011-11-13T07:49:21Z</time>
      </trkpt>
      <trkpt lat="49.30739" lon="2.50096">
        <ele>90</ele>
        <time>2011-11-13T07:49:29Z</time>
      </trkpt>
      <trkpt lat="49.30745" lon="2.50106">
        <ele>90</ele>
        <time>2011-11-13T07:49:37Z</time>
      </trkpt>
      <trkpt lat="49.30752" lon="2.50115">
        <ele>82</ele>
        <time>2011-11-13T07:49:44Z</time>
      </trkpt>
      <trkpt lat="49.30758" lon="2.50128">
        <ele>74</ele>
        <time>2011-11-13T07:49:56Z</time>
      </trkpt>
      <trkpt lat="49.30767" lon="2.50137">
        <ele>74</ele>
        <time>2011-11-13T07:50:11Z</time>
      </trkpt>
      <trkpt lat="49.30776" lon="2.5014">
        <ele>74</ele>
        <time>2011-11-13T07:50:28Z</time>
      </trkpt>
      <trkpt lat="49.30785" lon="2.50136">
        <ele>74</ele>
        <time>2011-11-13T07:50:41Z</time>
      </trkpt>
      <trkpt lat="49.30792" lon="2.50127">
        <ele>74</ele>
        <time>2011-11-13T07:50:49Z</time>
      </trkpt>
      <trkpt lat="49.30801" lon="2.5012">
        <ele>74</ele>
        <time>2011-11-13T07:50:58Z</time>
      </trkpt>
      <trkpt lat="49.30807" lon="2.50109">
        <ele>74</ele>
        <time>2011-11-13T07:51:06Z</time>
      </trkpt>
      <trkpt lat="49.30817" lon="2.50104">
        <ele>74</ele>
        <time>2011-11-13T07:51:15Z</time>
      </trkpt>
      <trkpt lat="49.30825" lon="2.50109">
        <ele>74</ele>
        <time>2011-11-13T07:51:21Z</time>
      </trkpt>
      <trkpt lat="49.30835" lon="2.50113">
        <ele>74</ele>
        <time>2011-11-13T07:51:27Z</time>
      </trkpt>
      <trkpt lat="49.30841" lon="2.50125">
        <ele>61</ele>
        <time>2011-11-13T07:51:37Z</time>
      </trkpt>
      <trkpt lat="49.30847" lon="2.50137">
        <ele>61</ele>
        <time>2011-11-13T07:51:43Z</time>
      </trkpt>
      <trkpt lat="49.30851" lon="2.50149">
        <ele>61</ele>
        <time>2011-11-13T07:51:52Z</time>
      </trkpt>
      <trkpt lat="49.30858" lon="2.50159">
        <ele>61</ele>
        <time>2011-11-13T07:51:59Z</time>
      </trkpt>
      <trkpt lat="49.30864" lon="2.50171">
        <ele>61</ele>
        <time>2011-11-13T07:52:06Z</time>
      </trkpt>
      <trkpt lat="49.30868" lon="2.50184">
        <ele>61</ele>
        <time>2011-11-13T07:52:12Z</time>
      </trkpt>
      <trkpt lat="49.30873" lon="2.50196">
        <ele>55</ele>
        <time>2011-11-13T07:52:20Z</time>
      </trkpt>
      <trkpt lat="49.30877" lon="2.5021">
        <ele>55</ele>
        <time>2011-11-13T07:52:27Z</time>
      </trkpt>
      <trkpt lat="49.30881" lon="2.50223">
        <ele>55</ele>
        <time>2011-11-13T07:52:34Z</time>
      </trkpt>
      <trkpt lat="49.30885" lon="2.50237">
        <ele>55</ele>
        <time>2011-11-13T07:52:42Z</time>
      </trkpt>
      <trkpt lat="49.30889" lon="2.5025">
        <ele>55</ele>
        <time>2011-11-13T07:52:49Z</time>
      </trkpt>
      <trkpt lat="49.30893" lon="2.50263">
        <ele>55</ele>
        <time>2011-11-13T07:52:56Z</time>
      </trkpt>
      <trkpt lat="49.30897" lon="2.50277">
        <ele>55</ele>
        <time>2011-11-13T07:53:05Z</time>
      </trkpt>
      <trkpt lat="49.30901" lon="2.5029">
        <ele>48</ele>
        <time>2011-11-13T07:53:13Z</time>
      </trkpt>
      <trkpt lat="49.30902" lon="2.50296">
        <ele>50</ele>
        <time>2011-11-13T07:53:17Z</time>
      </trkpt>
      <trkpt lat="49.30905" lon="2.5031">
        <ele>48</ele>
        <time>2011-11-13T07:54:17Z</time>
      </trkpt>
      <trkpt lat="49.30908" lon="2.50325">
        <ele>48</ele>
        <time>2011-11-13T07:54:25Z</time>
      </trkpt>
      <trkpt lat="49.30908" lon="2.50339">
        <ele>42</ele>
        <time>2011-11-13T07:54:45Z</time>
      </trkpt>
      <trkpt lat="49.30911" lon="2.50352">
        <ele>42</ele>
        <time>2011-11-13T07:54:53Z</time>
      </trkpt>
      <trkpt lat="49.30917" lon="2.50366">
        <ele>42</ele>
        <time>2011-11-13T07:55:01Z</time>
      </trkpt>
      <trkpt lat="49.30924" lon="2.50378">
        <ele>42</ele>
        <time>2011-11-13T07:55:08Z</time>
      </trkpt>
      <trkpt lat="49.30928" lon="2.5039">
        <ele>33</ele>
        <time>2011-11-13T07:55:16Z</time>
      </trkpt>
      <trkpt lat="49.30934" lon="2.50401">
        <ele>33</ele>
        <time>2011-11-13T07:55:23Z</time>
      </trkpt>
      <trkpt lat="49.3094" lon="2.50411">
        <ele>33</ele>
        <time>2011-11-13T07:55:30Z</time>
      </trkpt>
      <trkpt lat="49.30946" lon="2.50422">
        <ele>33</ele>
        <time>2011-11-13T07:55:38Z</time>
      </trkpt>
      <trkpt lat="49.30952" lon="2.50433">
        <ele>33</ele>
        <time>2011-11-13T07:55:46Z</time>
      </trkpt>
      <trkpt lat="49.30957" lon="2.50445">
        <ele>33</ele>
        <time>2011-11-13T07:55:54Z</time>
      </trkpt>
      <trkpt lat="49.30964" lon="2.50458">
        <ele>33</ele>
        <time>2011-11-13T07:56:01Z</time>
      </trkpt>
      <trkpt lat="49.30971" lon="2.50467">
        <ele>33</ele>
        <time>2011-11-13T07:56:07Z</time>
      </trkpt>
      <trkpt lat="49.30977" lon="2.50477">
        <ele>33</ele>
        <time>2011-11-13T07:56:14Z</time>
      </trkpt>
      <trkpt lat="49.30984" lon="2.50486">
        <ele>33</ele>
        <time>2011-11-13T07:56:20Z</time>
      </trkpt>
      <trkpt lat="49.3099" lon="2.50497">
        <ele>33</ele>
        <time>2011-11-13T07:56:27Z</time>
      </trkpt>
      <trkpt lat="49.30999" lon="2.50503">
        <ele>33</ele>
        <time>2011-11-13T07:56:34Z</time>
      </trkpt>
      <trkpt lat="49.31009" lon="2.50503">
        <ele>33</ele>
        <time>2011-11-13T07:56:38Z</time>
      </trkpt>
      <trkpt lat="49.31018" lon="2.50505">
        <ele>33</ele>
        <time>2011-11-13T07:56:45Z</time>
      </trkpt>
      <trkpt lat="49.31027" lon="2.50506">
        <ele>33</ele>
        <time>2011-11-13T07:56:50Z</time>
      </trkpt>
      <trkpt lat="49.31037" lon="2.50507">
        <ele>38</ele>
        <time>2011-11-13T07:56:57Z</time>
      </trkpt>
      <trkpt lat="49.31047" lon="2.50507">
        <ele>38</ele>
        <time>2011-11-13T07:57:04Z</time>
      </trkpt>
      <trkpt lat="49.31057" lon="2.50507">
        <ele>38</ele>
        <time>2011-11-13T07:57:11Z</time>
      </trkpt>
      <trkpt lat="49.31067" lon="2.50506">
        <ele>38</ele>
        <time>2011-11-13T07:57:18Z</time>
      </trkpt>
      <trkpt lat="49.31077" lon="2.50508">
        <ele>38</ele>
        <time>2011-11-13T07:57:26Z</time>
      </trkpt>
      <trkpt lat="49.31087" lon="2.50508">
        <ele>38</ele>
        <time>2011-11-13T07:57:33Z</time>
      </trkpt>
      <trkpt lat="49.31096" lon="2.50513">
        <ele>38</ele>
        <time>2011-11-13T07:57:39Z</time>
      </trkpt>
      <trkpt lat="49.31107" lon="2.50516">
        <ele>38</ele>
        <time>2011-11-13T07:57:47Z</time>
      </trkpt>
      <trkpt lat="49.3112" lon="2.50516">
        <ele>38</ele>
        <time>2011-11-13T07:57:56Z</time>
      </trkpt>
      <trkpt lat="49.31129" lon="2.5051">
        <ele>38</ele>
        <time>2011-11-13T07:58:02Z</time>
      </trkpt>
      <trkpt lat="49.31135" lon="2.50499">
        <ele>45</ele>
        <time>2011-11-13T07:58:10Z</time>
      </trkpt>
      <trkpt lat="49.31134" lon="2.50484">
        <ele>45</ele>
        <time>2011-11-13T07:58:15Z</time>
      </trkpt>
      <trkpt lat="49.31135" lon="2.5047">
        <ele>45</ele>
        <time>2011-11-13T07:58:24Z</time>
      </trkpt>
      <trkpt lat="49.31133" lon="2.50457">
        <ele>45</ele>
        <time>2011-11-13T07:58:30Z</time>
      </trkpt>
      <trkpt lat="49.31135" lon="2.50441">
        <ele>45</ele>
        <time>2011-11-13T07:58:39Z</time>
      </trkpt>
      <trkpt lat="49.31138" lon="2.50427">
        <ele>45</ele>
        <time>2011-11-13T07:58:46Z</time>
      </trkpt>
      <trkpt lat="49.31137" lon="2.50441">
        <ele>45</ele>
        <time>2011-11-13T07:59:05Z</time>
      </trkpt>
      <trkpt lat="49.3114" lon="2.50427">
        <ele>45</ele>
        <time>2011-11-13T07:59:16Z</time>
      </trkpt>
      <trkpt lat="49.31145" lon="2.50415">
        <ele>45</ele>
        <time>2011-11-13T07:59:23Z</time>
      </trkpt>
      <trkpt lat="49.31147" lon="2.50401">
        <ele>45</ele>
        <time>2011-11-13T07:59:31Z</time>
      </trkpt>
      <trkpt lat="49.31149" lon="2.50387">
        <ele>54</ele>
        <time>2011-11-13T07:59:40Z</time>
      </trkpt>
      <trkpt lat="49.31141" lon="2.50419">
        <ele>43</ele>
        <time>2011-11-13T07:59:20Z</time>
      </trkpt>
      <trkpt lat="49.3115" lon="2.50373">
        <ele>54</ele>
        <time>2011-11-13T07:59:51Z</time>
      </trkpt>
      <trkpt lat="49.31144" lon="2.5036">
        <ele>54</ele>
        <time>2011-11-13T08:00:00Z</time>
      </trkpt>
      <trkpt lat="49.31138" lon="2.50348">
        <ele>48</ele>
        <time>2011-11-13T08:00:07Z</time>
      </trkpt>
      <trkpt lat="49.31135" lon="2.50334">
        <ele>48</ele>
        <time>2011-11-13T08:00:15Z</time>
      </trkpt>
      <trkpt lat="49.31132" lon="2.5032">
        <ele>48</ele>
        <time>2011-11-13T08:00:24Z</time>
      </trkpt>
      <trkpt lat="49.31128" lon="2.50308">
        <ele>48</ele>
        <time>2011-11-13T08:00:32Z</time>
      </trkpt>
      <trkpt lat="49.31123" lon="2.50295">
        <ele>48</ele>
        <time>2011-11-13T08:00:40Z</time>
      </trkpt>
      <trkpt lat="49.31119" lon="2.50281">
        <ele>48</ele>
        <time>2011-11-13T08:00:56Z</time>
      </trkpt>
      <trkpt lat="49.31115" lon="2.50267">
        <ele>48</ele>
        <time>2011-11-13T08:01:03Z</time>
      </trkpt>
      <trkpt lat="49.31112" lon="2.50253">
        <ele>43</ele>
        <time>2011-11-13T08:01:13Z</time>
      </trkpt>
      <trkpt lat="49.31105" lon="2.50243">
        <ele>43</ele>
        <time>2011-11-13T08:01:20Z</time>
      </trkpt>
      <trkpt lat="49.311" lon="2.50231">
        <ele>43</ele>
        <time>2011-11-13T08:01:28Z</time>
      </trkpt>
      <trkpt lat="49.31096" lon="2.50219">
        <ele>43</ele>
        <time>2011-11-13T08:01:36Z</time>
      </trkpt>
      <trkpt lat="49.31091" lon="2.50206">
        <ele>43</ele>
        <time>2011-11-13T08:01:44Z</time>
      </trkpt>
      <trkpt lat="49.31086" lon="2.50193">
        <ele>43</ele>
        <time>2011-11-13T08:01:53Z</time>
      </trkpt>
      <trkpt lat="49.31081" lon="2.5018">
        <ele>43</ele>
        <time>2011-11-13T08:02:00Z</time>
      </trkpt>
      <trkpt lat="49.31077" lon="2.50167">
        <ele>48</ele>
        <time>2011-11-13T08:02:09Z</time>
      </trkpt>
      <trkpt lat="49.31073" lon="2.50155">
        <ele>48</ele>
        <time>2011-11-13T08:02:16Z</time>
      </trkpt>
      <trkpt lat="49.3107" lon="2.5014">
        <ele>48</ele>
        <time>2011-11-13T08:02:24Z</time>
      </trkpt>
      <trkpt lat="49.31066" lon="2.50128">
        <ele>48</ele>
        <time>2011-11-13T08:02:31Z</time>
      </trkpt>
      <trkpt lat="49.31061" lon="2.50113">
        <ele>48</ele>
        <time>2011-11-13T08:02:39Z</time>
      </trkpt>
      <trkpt lat="49.31059" lon="2.50099">
        <ele>43</ele>
        <time>2011-11-13T08:02:47Z</time>
      </trkpt>
      <trkpt lat="49.31055" lon="2.50086">
        <ele>43</ele>
        <time>2011-11-13T08:02:55Z</time>
      </trkpt>
      <trkpt lat="49.31051" lon="2.50073">
        <ele>43</ele>
        <time>2011-11-13T08:03:02Z</time>
      </trkpt>
      <trkpt lat="49.31047" lon="2.5006">
        <ele>43</ele>
        <time>2011-11-13T08:03:10Z</time>
      </trkpt>
      <trkpt lat="49.31043" lon="2.50046">
        <ele>43</ele>
        <time>2011-11-13T08:03:18Z</time>
      </trkpt>
      <trkpt lat="49.31038" lon="2.50033">
        <ele>43</ele>
        <time>2011-11-13T08:03:26Z</time>
      </trkpt>
      <trkpt lat="49.31033" lon="2.5002">
        <ele>43</ele>
        <time>2011-11-13T08:03:34Z</time>
      </trkpt>
      <trkpt lat="49.31027" lon="2.50008">
        <ele>43</ele>
        <time>2011-11-13T08:03:42Z</time>
      </trkpt>
      <trkpt lat="49.31021" lon="2.49997">
        <ele>49</ele>
        <time>2011-11-13T08:03:50Z</time>
      </trkpt>
      <trkpt lat="49.31014" lon="2.49984">
        <ele>49</ele>
        <time>2011-11-13T08:03:58Z</time>
      </trkpt>
      <trkpt lat="49.31008" lon="2.49974">
        <ele>49</ele>
        <time>2011-11-13T08:04:05Z</time>
      </trkpt>
      <trkpt lat="49.31002" lon="2.49963">
        <ele>49</ele>
        <time>2011-11-13T08:04:12Z</time>
      </trkpt>
      <trkpt lat="49.30997" lon="2.49951">
        <ele>49</ele>
        <time>2011-11-13T08:04:20Z</time>
      </trkpt>
      <trkpt lat="49.30992" lon="2.49938">
        <ele>49</ele>
        <time>2011-11-13T08:04:27Z</time>
      </trkpt>
      <trkpt lat="49.30986" lon="2.49928">
        <ele>49</ele>
        <time>2011-11-13T08:04:35Z</time>
      </trkpt>
      <trkpt lat="49.3098" lon="2.49917">
        <ele>49</ele>
        <time>2011-11-13T08:04:53Z</time>
      </trkpt>
      <trkpt lat="49.30975" lon="2.49903">
        <ele>49</ele>
        <time>2011-11-13T08:05:02Z</time>
      </trkpt>
      <trkpt lat="49.30969" lon="2.49891">
        <ele>49</ele>
        <time>2011-11-13T08:05:11Z</time>
      </trkpt>
      <trkpt lat="49.30963" lon="2.4988">
        <ele>49</ele>
        <time>2011-11-13T08:05:20Z</time>
      </trkpt>
      <trkpt lat="49.30956" lon="2.49869">
        <ele>49</ele>
        <time>2011-11-13T08:05:28Z</time>
      </trkpt>
      <trkpt lat="49.30947" lon="2.49874">
        <ele>56</ele>
        <time>2011-11-13T08:07:02Z</time>
      </trkpt>
      <trkpt lat="49.30947" lon="2.49872">
        <ele>56</ele>
        <time>2011-11-13T08:06:50Z</time>
      </trkpt>
      <trkpt lat="49.30947" lon="2.49857">
        <ele>64</ele>
        <time>2011-11-13T08:07:55Z</time>
      </trkpt>
      <trkpt lat="49.3094" lon="2.49846">
        <ele>64</ele>
        <time>2011-11-13T08:08:01Z</time>
      </trkpt>
      <trkpt lat="49.30936" lon="2.49831">
        <ele>64</ele>
        <time>2011-11-13T08:08:09Z</time>
      </trkpt>
      <trkpt lat="49.30933" lon="2.49815">
        <ele>64</ele>
        <time>2011-11-13T08:08:17Z</time>
      </trkpt>
      <trkpt lat="49.30936" lon="2.49801">
        <ele>64</ele>
        <time>2011-11-13T08:08:24Z</time>
      </trkpt>
      <trkpt lat="49.30941" lon="2.49786">
        <ele>64</ele>
        <time>2011-11-13T08:08:32Z</time>
      </trkpt>
      <trkpt lat="49.30942" lon="2.49767">
        <ele>64</ele>
        <time>2011-11-13T08:08:44Z</time>
      </trkpt>
      <trkpt lat="49.30943" lon="2.4975">
        <ele>64</ele>
        <time>2011-11-13T08:08:48Z</time>
      </trkpt>
      <trkpt lat="49.30943" lon="2.49734">
        <ele>64</ele>
        <time>2011-11-13T08:08:59Z</time>
      </trkpt>
      <trkpt lat="49.30949" lon="2.49725">
        <ele>75</ele>
        <time>2011-11-13T08:09:12Z</time>
      </trkpt>
      <trkpt lat="49.30956" lon="2.49712">
        <ele>75</ele>
        <time>2011-11-13T08:09:19Z</time>
      </trkpt>
      <trkpt lat="49.30963" lon="2.49702">
        <ele>87</ele>
        <time>2011-11-13T08:09:30Z</time>
      </trkpt>
      <trkpt lat="49.30972" lon="2.49692">
        <ele>87</ele>
        <time>2011-11-13T08:09:44Z</time>
      </trkpt>
      <trkpt lat="49.3098" lon="2.49684">
        <ele>87</ele>
        <time>2011-11-13T08:09:46Z</time>
      </trkpt>
      <trkpt lat="49.30977" lon="2.49671">
        <ele>78</ele>
        <time>2011-11-13T08:09:57Z</time>
      </trkpt>
      <trkpt lat="49.30984" lon="2.49663">
        <ele>78</ele>
        <time>2011-11-13T08:10:04Z</time>
      </trkpt>
      <trkpt lat="49.30991" lon="2.49653">
        <ele>78</ele>
        <time>2011-11-13T08:10:12Z</time>
      </trkpt>
      <trkpt lat="49.30998" lon="2.49642">
        <ele>78</ele>
        <time>2011-11-13T08:10:24Z</time>
      </trkpt>
      <trkpt lat="49.31004" lon="2.49632">
        <ele>78</ele>
        <time>2011-11-13T08:10:30Z</time>
      </trkpt>
      <trkpt lat="49.31009" lon="2.49618">
        <ele>72</ele>
        <time>2011-11-13T08:10:42Z</time>
      </trkpt>
      <trkpt lat="49.31014" lon="2.49605">
        <ele>72</ele>
        <time>2011-11-13T08:10:46Z</time>
      </trkpt>
      <trkpt lat="49.3102" lon="2.49594">
        <ele>87</ele>
        <time>2011-11-13T08:11:02Z</time>
      </trkpt>
      <trkpt lat="49.31028" lon="2.49587">
        <ele>87</ele>
        <time>2011-11-13T08:11:11Z</time>
      </trkpt>
      <trkpt lat="49.31034" lon="2.49576">
        <ele>87</ele>
        <time>2011-11-13T08:11:19Z</time>
      </trkpt>
      <trkpt lat="49.3104" lon="2.49566">
        <ele>87</ele>
        <time>2011-11-13T08:11:28Z</time>
      </trkpt>
      <trkpt lat="49.31043" lon="2.49551">
        <ele>87</ele>
        <time>2011-11-13T08:11:37Z</time>
      </trkpt>
      <trkpt lat="49.31051" lon="2.49545">
        <ele>87</ele>
        <time>2011-11-13T08:11:45Z</time>
      </trkpt>
      <trkpt lat="49.3106" lon="2.49539">
        <ele>94</ele>
        <time>2011-11-13T08:12:11Z</time>
      </trkpt>
      <trkpt lat="49.31061" lon="2.49525">
        <ele>94</ele>
        <time>2011-11-13T08:12:36Z</time>
      </trkpt>
      <trkpt lat="49.31051" lon="2.49526">
        <ele>94</ele>
        <time>2011-11-13T08:13:03Z</time>
      </trkpt>
      <trkpt lat="49.3105" lon="2.49512">
        <ele>94</ele>
        <time>2011-11-13T08:13:12Z</time>
      </trkpt>
      <trkpt lat="49.3105" lon="2.49497">
        <ele>88</ele>
        <time>2011-11-13T08:13:22Z</time>
      </trkpt>
      <trkpt lat="49.31051" lon="2.49482">
        <ele>82</ele>
        <time>2011-11-13T08:13:29Z</time>
      </trkpt>
      <trkpt lat="49.31051" lon="2.49467">
        <ele>82</ele>
        <time>2011-11-13T08:13:38Z</time>
      </trkpt>
      <trkpt lat="49.31048" lon="2.49453">
        <ele>82</ele>
        <time>2011-11-13T08:13:45Z</time>
      </trkpt>
      <trkpt lat="49.31047" lon="2.49439">
        <ele>75</ele>
        <time>2011-11-13T08:13:51Z</time>
      </trkpt>
      <trkpt lat="49.31043" lon="2.49424">
        <ele>84</ele>
        <time>2011-11-13T08:14:01Z</time>
      </trkpt>
      <trkpt lat="49.31043" lon="2.49409">
        <ele>84</ele>
        <time>2011-11-13T08:14:10Z</time>
      </trkpt>
      <trkpt lat="49.31041" lon="2.49395">
        <ele>84</ele>
        <time>2011-11-13T08:14:17Z</time>
      </trkpt>
      <trkpt lat="49.3104" lon="2.4938">
        <ele>84</ele>
        <time>2011-11-13T08:14:24Z</time>
      </trkpt>
      <trkpt lat="49.31039" lon="2.49366">
        <ele>90</ele>
        <time>2011-11-13T08:14:33Z</time>
      </trkpt>
      <trkpt lat="49.31038" lon="2.49352">
        <ele>90</ele>
        <time>2011-11-13T08:14:40Z</time>
      </trkpt>
      <trkpt lat="49.31037" lon="2.49336">
        <ele>95</ele>
        <time>2011-11-13T08:14:49Z</time>
      </trkpt>
      <trkpt lat="49.31035" lon="2.49322">
        <ele>95</ele>
        <time>2011-11-13T08:14:57Z</time>
      </trkpt>
      <trkpt lat="49.31035" lon="2.49307">
        <ele>95</ele>
        <time>2011-11-13T08:15:04Z</time>
      </trkpt>
      <trkpt lat="49.31034" lon="2.49292">
        <ele>95</ele>
        <time>2011-11-13T08:15:11Z</time>
      </trkpt>
      <trkpt lat="49.31033" lon="2.49277">
        <ele>95</ele>
        <time>2011-11-13T08:15:18Z</time>
      </trkpt>
      <trkpt lat="49.31033" lon="2.49261">
        <ele>95</ele>
        <time>2011-11-13T08:15:26Z</time>
      </trkpt>
      <trkpt lat="49.31031" lon="2.49246">
        <ele>95</ele>
        <time>2011-11-13T08:15:34Z</time>
      </trkpt>
      <trkpt lat="49.3103" lon="2.4923">
        <ele>95</ele>
        <time>2011-11-13T08:15:42Z</time>
      </trkpt>
      <trkpt lat="49.3103" lon="2.49215">
        <ele>95</ele>
        <time>2011-11-13T08:15:49Z</time>
      </trkpt>
      <trkpt lat="49.3103" lon="2.49201">
        <ele>95</ele>
        <time>2011-11-13T08:15:56Z</time>
      </trkpt>
      <trkpt lat="49.31029" lon="2.49185">
        <ele>95</ele>
        <time>2011-11-13T08:16:03Z</time>
      </trkpt>
      <trkpt lat="49.31027" lon="2.49168">
        <ele>95</ele>
        <time>2011-11-13T08:16:12Z</time>
      </trkpt>
      <trkpt lat="49.31023" lon="2.49155">
        <ele>95</ele>
        <time>2011-11-13T08:16:20Z</time>
      </trkpt>
      <trkpt lat="49.3102" lon="2.49141">
        <ele>95</ele>
        <time>2011-11-13T08:16:27Z</time>
      </trkpt>
      <trkpt lat="49.31017" lon="2.49127">
        <ele>95</ele>
        <time>2011-11-13T08:16:34Z</time>
      </trkpt>
      <trkpt lat="49.31013" lon="2.49114">
        <ele>95</ele>
        <time>2011-11-13T08:16:41Z</time>
      </trkpt>
      <trkpt lat="49.31009" lon="2.49099">
        <ele>95</ele>
        <time>2011-11-13T08:16:49Z</time>
      </trkpt>
      <trkpt lat="49.31006" lon="2.49086">
        <ele>95</ele>
        <time>2011-11-13T08:16:56Z</time>
      </trkpt>
      <trkpt lat="49.31001" lon="2.49073">
        <ele>95</ele>
        <time>2011-11-13T08:17:03Z</time>
      </trkpt>
      <trkpt lat="49.30997" lon="2.4906">
        <ele>95</ele>
        <time>2011-11-13T08:17:11Z</time>
      </trkpt>
      <trkpt lat="49.30993" lon="2.49046">
        <ele>95</ele>
        <time>2011-11-13T08:17:18Z</time>
      </trkpt>
      <trkpt lat="49.30993" lon="2.49032">
        <ele>95</ele>
        <time>2011-11-13T08:17:25Z</time>
      </trkpt>
      <trkpt lat="49.30994" lon="2.49018">
        <ele>103</ele>
        <time>2011-11-13T08:17:32Z</time>
      </trkpt>
      <trkpt lat="49.30998" lon="2.49001">
        <ele>97</ele>
        <time>2011-11-13T08:17:38Z</time>
      </trkpt>
      <trkpt lat="49.30999" lon="2.48985">
        <ele>89</ele>
        <time>2011-11-13T08:17:44Z</time>
      </trkpt>
      <trkpt lat="49.30998" lon="2.4897">
        <ele>89</ele>
        <time>2011-11-13T08:17:52Z</time>
      </trkpt>
      <trkpt lat="49.31" lon="2.48955">
        <ele>89</ele>
        <time>2011-11-13T08:17:58Z</time>
      </trkpt>
      <trkpt lat="49.31002" lon="2.48939">
        <ele>76</ele>
        <time>2011-11-13T08:18:03Z</time>
      </trkpt>
      <trkpt lat="49.31008" lon="2.48928">
        <ele>76</ele>
        <time>2011-11-13T08:18:10Z</time>
      </trkpt>
      <trkpt lat="49.3101" lon="2.48911">
        <ele>70</ele>
        <time>2011-11-13T08:18:16Z</time>
      </trkpt>
      <trkpt lat="49.31017" lon="2.48902">
        <ele>78</ele>
        <time>2011-11-13T08:18:25Z</time>
      </trkpt>
      <trkpt lat="49.3102" lon="2.48888">
        <ele>78</ele>
        <time>2011-11-13T08:18:33Z</time>
      </trkpt>
      <trkpt lat="49.31026" lon="2.48877">
        <ele>78</ele>
        <time>2011-11-13T08:18:42Z</time>
      </trkpt>
      <trkpt lat="49.31028" lon="2.48861">
        <ele>78</ele>
        <time>2011-11-13T08:18:51Z</time>
      </trkpt>
      <trkpt lat="49.31029" lon="2.48847">
        <ele>88</ele>
        <time>2011-11-13T08:18:59Z</time>
      </trkpt>
      <trkpt lat="49.31034" lon="2.48833">
        <ele>88</ele>
        <time>2011-11-13T08:19:08Z</time>
      </trkpt>
      <trkpt lat="49.31038" lon="2.48818">
        <ele>88</ele>
        <time>2011-11-13T08:19:17Z</time>
      </trkpt>
      <trkpt lat="49.31042" lon="2.48805">
        <ele>93</ele>
        <time>2011-11-13T08:19:23Z</time>
      </trkpt>
      <trkpt lat="49.31044" lon="2.48789">
        <ele>93</ele>
        <time>2011-11-13T08:19:30Z</time>
      </trkpt>
      <trkpt lat="49.31047" lon="2.48775">
        <ele>93</ele>
        <time>2011-11-13T08:19:38Z</time>
      </trkpt>
      <trkpt lat="49.31041" lon="2.48763">
        <ele>93</ele>
        <time>2011-11-13T08:19:46Z</time>
      </trkpt>
      <trkpt lat="49.31032" lon="2.48763">
        <ele>93</ele>
        <time>2011-11-13T08:19:56Z</time>
      </trkpt>
      <trkpt lat="49.31022" lon="2.48767">
        <ele>93</ele>
        <time>2011-11-13T08:20:04Z</time>
      </trkpt>
      <trkpt lat="49.31012" lon="2.48768">
        <ele>88</ele>
        <time>2011-11-13T08:20:11Z</time>
      </trkpt>
      <trkpt lat="49.31001" lon="2.48771">
        <ele>88</ele>
        <time>2011-11-13T08:20:19Z</time>
      </trkpt>
      <trkpt lat="49.30992" lon="2.48775">
        <ele>88</ele>
        <time>2011-11-13T08:20:25Z</time>
      </trkpt>
      <trkpt lat="49.30982" lon="2.48779">
        <ele>88</ele>
        <time>2011-11-13T08:20:33Z</time>
      </trkpt>
      <trkpt lat="49.30972" lon="2.48779">
        <ele>88</ele>
        <time>2011-11-13T08:20:41Z</time>
      </trkpt>
      <trkpt lat="49.30962" lon="2.48782">
        <ele>88</ele>
        <time>2011-11-13T08:20:48Z</time>
      </trkpt>
      <trkpt lat="49.30953" lon="2.48782">
        <ele>88</ele>
        <time>2011-11-13T08:20:55Z</time>
      </trkpt>
      <trkpt lat="49.30943" lon="2.48783">
        <ele>88</ele>
        <time>2011-11-13T08:21:03Z</time>
      </trkpt>
      <trkpt lat="49.30933" lon="2.48785">
        <ele>88</ele>
        <time>2011-11-13T08:21:11Z</time>
      </trkpt>
      <trkpt lat="49.30923" lon="2.48791">
        <ele>88</ele>
        <time>2011-11-13T08:21:19Z</time>
      </trkpt>
      <trkpt lat="49.30913" lon="2.48792">
        <ele>88</ele>
        <time>2011-11-13T08:21:26Z</time>
      </trkpt>
      <trkpt lat="49.30903" lon="2.48792">
        <ele>88</ele>
        <time>2011-11-13T08:21:33Z</time>
      </trkpt>
      <trkpt lat="49.30893" lon="2.48792">
        <ele>88</ele>
        <time>2011-11-13T08:21:38Z</time>
      </trkpt>
      <trkpt lat="49.30883" lon="2.48792">
        <ele>88</ele>
        <time>2011-11-13T08:21:45Z</time>
      </trkpt>
      <trkpt lat="49.30874" lon="2.48794">
        <ele>88</ele>
        <time>2011-11-13T08:21:52Z</time>
      </trkpt>
      <trkpt lat="49.30864" lon="2.48792">
        <ele>88</ele>
        <time>2011-11-13T08:21:59Z</time>
      </trkpt>
      <trkpt lat="49.30855" lon="2.48792">
        <ele>88</ele>
        <time>2011-11-13T08:22:07Z</time>
      </trkpt>
      <trkpt lat="49.30845" lon="2.48793">
        <ele>88</ele>
        <time>2011-11-13T08:22:14Z</time>
      </trkpt>
      <trkpt lat="49.30836" lon="2.48795">
        <ele>88</ele>
        <time>2011-11-13T08:22:25Z</time>
      </trkpt>
      <trkpt lat="49.30826" lon="2.48795">
        <ele>88</ele>
        <time>2011-11-13T08:22:33Z</time>
      </trkpt>
      <trkpt lat="49.30817" lon="2.48797">
        <ele>88</ele>
        <time>2011-11-13T08:22:40Z</time>
      </trkpt>
      <trkpt lat="49.30807" lon="2.48798">
        <ele>93</ele>
        <time>2011-11-13T08:22:47Z</time>
      </trkpt>
      <trkpt lat="49.30797" lon="2.48799">
        <ele>93</ele>
        <time>2011-11-13T08:22:55Z</time>
      </trkpt>
      <trkpt lat="49.30788" lon="2.488">
        <ele>93</ele>
        <time>2011-11-13T08:23:02Z</time>
      </trkpt>
      <trkpt lat="49.30778" lon="2.48801">
        <ele>93</ele>
        <time>2011-11-13T08:23:09Z</time>
      </trkpt>
      <trkpt lat="49.30768" lon="2.48802">
        <ele>93</ele>
        <time>2011-11-13T08:23:17Z</time>
      </trkpt>
      <trkpt lat="49.30757" lon="2.48803">
        <ele>93</ele>
        <time>2011-11-13T08:23:25Z</time>
      </trkpt>
      <trkpt lat="49.30747" lon="2.48804">
        <ele>93</ele>
        <time>2011-11-13T08:23:33Z</time>
      </trkpt>
      <trkpt lat="49.30737" lon="2.48805">
        <ele>93</ele>
        <time>2011-11-13T08:23:40Z</time>
      </trkpt>
      <trkpt lat="49.30728" lon="2.48806">
        <ele>93</ele>
        <time>2011-11-13T08:23:47Z</time>
      </trkpt>
      <trkpt lat="49.30718" lon="2.48807">
        <ele>93</ele>
        <time>2011-11-13T08:23:55Z</time>
      </trkpt>
      <trkpt lat="49.30708" lon="2.48807">
        <ele>93</ele>
        <time>2011-11-13T08:24:02Z</time>
      </trkpt>
      <trkpt lat="49.30698" lon="2.48806">
        <ele>93</ele>
        <time>2011-11-13T08:24:10Z</time>
      </trkpt>
      <trkpt lat="49.30688" lon="2.48803">
        <ele>93</ele>
        <time>2011-11-13T08:24:18Z</time>
      </trkpt>
      <trkpt lat="49.30679" lon="2.48796">
        <ele>93</ele>
        <time>2011-11-13T08:24:26Z</time>
      </trkpt>
      <trkpt lat="49.3067" lon="2.48794">
        <ele>93</ele>
        <time>2011-11-13T08:24:33Z</time>
      </trkpt>
      <trkpt lat="49.3066" lon="2.48789">
        <ele>93</ele>
        <time>2011-11-13T08:24:41Z</time>
      </trkpt>
      <trkpt lat="49.30651" lon="2.48786">
        <ele>93</ele>
        <time>2011-11-13T08:24:49Z</time>
      </trkpt>
      <trkpt lat="49.30641" lon="2.48783">
        <ele>93</ele>
        <time>2011-11-13T08:24:57Z</time>
      </trkpt>
      <trkpt lat="49.30631" lon="2.48778">
        <ele>93</ele>
        <time>2011-11-13T08:25:06Z</time>
      </trkpt>
      <trkpt lat="49.30622" lon="2.48777">
        <ele>93</ele>
        <time>2011-11-13T08:25:13Z</time>
      </trkpt>
      <trkpt lat="49.30612" lon="2.48775">
        <ele>87</ele>
        <time>2011-11-13T08:25:21Z</time>
      </trkpt>
      <trkpt lat="49.30603" lon="2.48771">
        <ele>87</ele>
        <time>2011-11-13T08:25:28Z</time>
      </trkpt>
      <trkpt lat="49.30594" lon="2.48771">
        <ele>87</ele>
        <time>2011-11-13T08:25:34Z</time>
      </trkpt>
      <trkpt lat="49.30584" lon="2.48771">
        <ele>81</ele>
        <time>2011-11-13T08:25:43Z</time>
      </trkpt>
      <trkpt lat="49.30575" lon="2.48771">
        <ele>81</ele>
        <time>2011-11-13T08:25:51Z</time>
      </trkpt>
      <trkpt lat="49.30566" lon="2.48775">
        <ele>81</ele>
        <time>2011-11-13T08:25:58Z</time>
      </trkpt>
      <trkpt lat="49.30556" lon="2.48773">
        <ele>81</ele>
        <time>2011-11-13T08:26:06Z</time>
      </trkpt>
      <trkpt lat="49.30546" lon="2.48771">
        <ele>81</ele>
        <time>2011-11-13T08:26:15Z</time>
      </trkpt>
      <trkpt lat="49.30536" lon="2.48768">
        <ele>81</ele>
        <time>2011-11-13T08:26:22Z</time>
      </trkpt>
      <trkpt lat="49.30526" lon="2.48765">
        <ele>81</ele>
        <time>2011-11-13T08:26:29Z</time>
      </trkpt>
      <trkpt lat="49.30517" lon="2.48763">
        <ele>81</ele>
        <time>2011-11-13T08:26:35Z</time>
      </trkpt>
      <trkpt lat="49.30507" lon="2.48761">
        <ele>86</ele>
        <time>2011-11-13T08:26:43Z</time>
      </trkpt>
      <trkpt lat="49.30498" lon="2.48761">
        <ele>86</ele>
        <time>2011-11-13T08:26:50Z</time>
      </trkpt>
      <trkpt lat="49.30488" lon="2.4876">
        <ele>92</ele>
        <time>2011-11-13T08:26:58Z</time>
      </trkpt>
      <trkpt lat="49.30478" lon="2.48758">
        <ele>92</ele>
        <time>2011-11-13T08:27:06Z</time>
      </trkpt>
      <trkpt lat="49.30468" lon="2.48756">
        <ele>92</ele>
        <time>2011-11-13T08:27:14Z</time>
      </trkpt>
      <trkpt lat="49.30459" lon="2.48756">
        <ele>92</ele>
        <time>2011-11-13T08:27:21Z</time>
      </trkpt>
      <trkpt lat="49.30449" lon="2.48755">
        <ele>92</ele>
        <time>2011-11-13T08:27:29Z</time>
      </trkpt>
      <trkpt lat="49.30439" lon="2.48755">
        <ele>98</ele>
        <time>2011-11-13T08:27:37Z</time>
      </trkpt>
      <trkpt lat="49.30429" lon="2.48757">
        <ele>98</ele>
        <time>2011-11-13T08:27:44Z</time>
      </trkpt>
      <trkpt lat="49.30419" lon="2.4876">
        <ele>98</ele>
        <time>2011-11-13T08:27:51Z</time>
      </trkpt>
      <trkpt lat="49.30411" lon="2.48765">
        <ele>98</ele>
        <time>2011-11-13T08:27:58Z</time>
      </trkpt>
      <trkpt lat="49.30402" lon="2.4877">
        <ele>98</ele>
        <time>2011-11-13T08:28:05Z</time>
      </trkpt>
      <trkpt lat="49.30393" lon="2.48777">
        <ele>98</ele>
        <time>2011-11-13T08:28:12Z</time>
      </trkpt>
      <trkpt lat="49.30385" lon="2.48783">
        <ele>98</ele>
        <time>2011-11-13T08:28:19Z</time>
      </trkpt>
      <trkpt lat="49.30376" lon="2.48791">
        <ele>98</ele>
        <time>2011-11-13T08:28:27Z</time>
      </trkpt>
      <trkpt lat="49.30367" lon="2.48799">
        <ele>103</ele>
        <time>2011-11-13T08:28:35Z</time>
      </trkpt>
      <trkpt lat="49.30359" lon="2.48807">
        <ele>103</ele>
        <time>2011-11-13T08:28:48Z</time>
      </trkpt>
      <trkpt lat="49.3035" lon="2.48816">
        <ele>103</ele>
        <time>2011-11-13T08:28:56Z</time>
      </trkpt>
      <trkpt lat="49.30342" lon="2.48824">
        <ele>103</ele>
        <time>2011-11-13T08:29:04Z</time>
      </trkpt>
      <trkpt lat="49.30334" lon="2.48832">
        <ele>103</ele>
        <time>2011-11-13T08:29:12Z</time>
      </trkpt>
      <trkpt lat="49.30325" lon="2.48839">
        <ele>103</ele>
        <time>2011-11-13T08:29:19Z</time>
      </trkpt>
      <trkpt lat="49.30318" lon="2.48848">
        <ele>103</ele>
        <time>2011-11-13T08:29:27Z</time>
      </trkpt>
      <trkpt lat="49.30311" lon="2.48856">
        <ele>103</ele>
        <time>2011-11-13T08:29:38Z</time>
      </trkpt>
      <trkpt lat="49.30303" lon="2.48865">
        <ele>103</ele>
        <time>2011-11-13T08:29:46Z</time>
      </trkpt>
      <trkpt lat="49.30294" lon="2.48874">
        <ele>103</ele>
        <time>2011-11-13T08:29:54Z</time>
      </trkpt>
      <trkpt lat="49.30285" lon="2.48883">
        <ele>108</ele>
        <time>2011-11-13T08:30:02Z</time>
      </trkpt>
      <trkpt lat="49.30277" lon="2.48891">
        <ele>108</ele>
        <time>2011-11-13T08:30:10Z</time>
      </trkpt>
      <trkpt lat="49.30269" lon="2.48899">
        <ele>108</ele>
        <time>2011-11-13T08:30:17Z</time>
      </trkpt>
      <trkpt lat="49.30261" lon="2.48906">
        <ele>108</ele>
        <time>2011-11-13T08:30:25Z</time>
      </trkpt>
      <trkpt lat="49.30253" lon="2.48915">
        <ele>108</ele>
        <time>2011-11-13T08:30:33Z</time>
      </trkpt>
      <trkpt lat="49.30244" lon="2.48922">
        <ele>108</ele>
        <time>2011-11-13T08:30:41Z</time>
      </trkpt>
      <trkpt lat="49.30236" lon="2.48929">
        <ele>108</ele>
        <time>2011-11-13T08:30:49Z</time>
      </trkpt>
      <trkpt lat="49.30227" lon="2.48937">
        <ele>108</ele>
        <time>2011-11-13T08:30:56Z</time>
      </trkpt>
      <trkpt lat="49.30219" lon="2.48945">
        <ele>108</ele>
        <time>2011-11-13T08:31:08Z</time>
      </trkpt>
      <trkpt lat="49.3021" lon="2.48953">
        <ele>108</ele>
        <time>2011-11-13T08:31:15Z</time>
      </trkpt>
      <trkpt lat="49.30201" lon="2.48961">
        <ele>108</ele>
        <time>2011-11-13T08:31:23Z</time>
      </trkpt>
      <trkpt lat="49.30193" lon="2.48968">
        <ele>108</ele>
        <time>2011-11-13T08:31:30Z</time>
      </trkpt>
      <trkpt lat="49.30184" lon="2.48976">
        <ele>108</ele>
        <time>2011-11-13T08:31:38Z</time>
      </trkpt>
      <trkpt lat="49.30176" lon="2.48985">
        <ele>108</ele>
        <time>2011-11-13T08:31:45Z</time>
      </trkpt>
      <trkpt lat="49.30168" lon="2.48992">
        <ele>108</ele>
        <time>2011-11-13T08:31:52Z</time>
      </trkpt>
      <trkpt lat="49.3016" lon="2.49">
        <ele>108</ele>
        <time>2011-11-13T08:31:59Z</time>
      </trkpt>
      <trkpt lat="49.30151" lon="2.49008">
        <ele>108</ele>
        <time>2011-11-13T08:32:07Z</time>
      </trkpt>
      <trkpt lat="49.30143" lon="2.49015">
        <ele>108</ele>
        <time>2011-11-13T08:32:14Z</time>
      </trkpt>
      <trkpt lat="49.30135" lon="2.49021">
        <ele>108</ele>
        <time>2011-11-13T08:32:21Z</time>
      </trkpt>
      <trkpt lat="49.30127" lon="2.49029">
        <ele>108</ele>
        <time>2011-11-13T08:32:29Z</time>
      </trkpt>
      <trkpt lat="49.30117" lon="2.49029">
        <ele>108</ele>
        <time>2011-11-13T08:32:37Z</time>
      </trkpt>
      <trkpt lat="49.30112" lon="2.49018">
        <ele>108</ele>
        <time>2011-11-13T08:33:02Z</time>
      </trkpt>
      <trkpt lat="49.30108" lon="2.49005">
        <ele>108</ele>
        <time>2011-11-13T08:33:13Z</time>
      </trkpt>
      <trkpt lat="49.30105" lon="2.48991">
        <ele>108</ele>
        <time>2011-11-13T08:33:30Z</time>
      </trkpt>
    </trkseg>
  </trk>
</gpx>